createdAt,value
2018-11-14T00:00:30.882Z,6.10
2018-11-14T00:03:00.506Z,4.33
2018-11-14T00:05:29.038Z,7.73
2018-11-14T00:07:57.671Z,6.33
2018-11-14T00:10:26.356Z,7.13
2018-11-14T00:12:54.981Z,4.73
2018-11-14T00:15:24.712Z,6.40
2018-11-14T00:17:53.654Z,5.33
2018-11-14T00:20:22.196Z,7.13
2018-11-14T00:22:51.397Z,3.70
2018-11-14T00:25:20.014Z,4.03
2018-11-14T00:27:48.673Z,7.80
2018-11-14T00:30:21.816Z,7.40
2018-11-14T00:32:50.482Z,5.23
2018-11-14T00:35:19.039Z,9.83
2018-11-14T00:37:47.991Z,7.00
2018-11-14T00:40:17.766Z,6.30
2018-11-14T00:42:46.875Z,4.23
2018-11-14T00:45:18.076Z,4.17
2018-11-14T00:47:47.547Z,5.47
2018-11-14T00:50:16.891Z,6.47
2018-11-14T00:52:45.965Z,6.53
2018-11-14T00:55:16.589Z,5.70
2018-11-14T00:57:46.553Z,5.83
2018-11-14T01:00:19.813Z,5.97
2018-11-14T01:02:48.441Z,8.67
2018-11-14T01:05:17.518Z,7.80
2018-11-14T01:07:46.101Z,6.83
2018-11-14T01:10:16.310Z,6.70
2018-11-14T01:12:45.288Z,7.27
2018-11-14T01:15:15.869Z,8.67
2018-11-14T01:17:44.654Z,9.13
2018-11-14T01:20:15.165Z,8.53
2018-11-14T01:22:44.189Z,7.10
2018-11-14T01:25:13.696Z,6.27
2018-11-14T01:27:42.658Z,5.77
2018-11-14T01:30:13.831Z,6.70
2018-11-14T01:32:42.789Z,8.50
2018-11-14T01:35:11.411Z,9.37
2018-11-14T01:37:40.079Z,10.30
2018-11-14T01:40:12.241Z,8.80
2018-11-14T01:42:40.838Z,8.17
2018-11-14T01:45:10.746Z,11.00
2018-11-14T01:47:39.290Z,8.27
2018-11-14T01:50:09.153Z,8.77
2018-11-14T01:52:37.997Z,8.73
2018-11-14T01:55:08.294Z,10.37
2018-11-14T01:57:36.859Z,10.80
2018-11-14T02:00:08.386Z,13.37
2018-11-14T02:02:36.955Z,13.57
2018-11-14T02:05:06.772Z,12.77
2018-11-14T02:07:35.594Z,12.80
2018-11-14T02:10:04.564Z,11.20
2018-11-14T02:12:33.095Z,9.13
2018-11-14T02:15:01.709Z,8.70
2018-11-14T02:17:30.285Z,9.57
2018-11-14T02:19:58.837Z,8.20
2018-11-14T02:22:27.399Z,10.53
2018-11-14T02:24:55.952Z,8.10
2018-11-14T02:27:24.453Z,9.33
2018-11-14T02:29:53.641Z,9.47
2018-11-14T02:32:22.146Z,9.80
2018-11-14T02:34:50.721Z,9.80
2018-11-14T02:37:19.281Z,11.13
2018-11-14T02:39:47.834Z,8.63
2018-11-14T02:42:16.370Z,11.57
2018-11-14T02:44:44.982Z,9.40
2018-11-14T02:47:13.601Z,10.53
2018-11-14T02:49:42.167Z,10.10
2018-11-14T02:52:10.754Z,10.67
2018-11-14T02:54:39.287Z,9.40
2018-11-14T02:57:07.840Z,9.53
2018-11-14T02:59:36.747Z,9.90
2018-11-14T03:02:06.311Z,8.57
2018-11-14T03:04:35.197Z,11.47
2018-11-14T03:07:03.745Z,9.03
2018-11-14T03:09:32.327Z,8.70
2018-11-14T03:12:00.946Z,10.33
2018-11-14T03:14:29.508Z,8.53
2018-11-14T03:16:58.039Z,10.20
2018-11-14T03:19:26.590Z,8.07
2018-11-14T03:21:55.154Z,9.20
2018-11-14T03:24:23.702Z,14.20
2018-11-14T03:26:52.253Z,14.53
2018-11-14T03:29:20.833Z,12.30
2018-11-14T03:31:49.372Z,9.77
2018-11-14T03:34:18.073Z,10.77
2018-11-14T03:36:46.762Z,11.13
2018-11-14T03:39:15.286Z,10.60
2018-11-14T03:41:43.855Z,9.97
2018-11-14T03:44:12.474Z,11.57
2018-11-14T03:46:41.002Z,8.77
2018-11-14T03:49:09.502Z,9.00
2018-11-14T03:51:38.056Z,10.70
2018-11-14T03:54:06.581Z,12.57
2018-11-14T03:56:35.121Z,10.83
2018-11-14T03:59:04.879Z,10.17
2018-11-14T04:01:33.421Z,11.13
2018-11-14T04:04:01.945Z,8.47
2018-11-14T04:06:30.509Z,12.30
2018-11-14T04:08:59.033Z,10.50
2018-11-14T04:11:27.565Z,9.23
2018-11-14T04:13:56.141Z,10.07
2018-11-14T04:16:24.721Z,12.07
2018-11-14T04:18:53.335Z,10.80
2018-11-14T04:21:21.899Z,12.27
2018-11-14T04:23:51.178Z,8.63
2018-11-14T04:26:19.815Z,9.80
2018-11-14T04:28:48.369Z,8.50
2018-11-14T04:31:17.199Z,9.60
2018-11-14T04:33:45.782Z,9.37
2018-11-14T04:36:14.376Z,10.87
2018-11-14T04:38:43.067Z,12.23
2018-11-14T04:41:11.590Z,10.67
2018-11-14T04:43:40.138Z,11.63
2018-11-14T04:46:08.716Z,11.10
2018-11-14T04:48:37.237Z,9.57
2018-11-14T04:51:06.570Z,11.00
2018-11-14T04:53:35.110Z,8.80
2018-11-14T04:56:03.626Z,9.57
2018-11-14T04:58:32.186Z,8.70
2018-11-14T05:01:00.706Z,9.57
2018-11-14T05:03:29.296Z,12.20
2018-11-14T05:05:58.197Z,8.70
2018-11-14T05:08:26.774Z,11.40
2018-11-14T05:10:55.437Z,12.27
2018-11-14T05:13:23.994Z,12.50
2018-11-14T05:15:52.521Z,9.70
2018-11-14T05:18:21.089Z,12.80
2018-11-14T05:20:49.636Z,12.93
2018-11-14T05:23:18.181Z,9.93
2018-11-14T05:25:46.763Z,10.90
2018-11-14T05:28:15.353Z,12.73
2018-11-14T05:30:43.870Z,13.03
2018-11-14T05:33:12.392Z,11.20
2018-11-14T05:35:40.997Z,10.53
2018-11-14T05:38:09.513Z,14.10
2018-11-14T05:40:38.218Z,10.47
2018-11-14T05:43:06.790Z,10.63
2018-11-14T05:45:35.370Z,12.37
2018-11-14T05:48:04.937Z,14.80
2018-11-14T05:50:33.573Z,10.37
2018-11-14T05:53:02.134Z,8.80
2018-11-14T05:55:30.650Z,13.33
2018-11-14T05:57:59.270Z,12.50
2018-11-14T06:00:31.476Z,12.03
2018-11-14T06:03:01.520Z,12.67
2018-11-14T06:05:30.041Z,11.90
2018-11-14T06:07:58.609Z,10.17
2018-11-14T06:10:27.265Z,13.40
2018-11-14T06:12:55.809Z,16.50
2018-11-14T06:15:24.893Z,13.13
2018-11-14T06:17:54.700Z,15.37
2018-11-14T06:20:23.446Z,16.37
2018-11-14T06:22:52.664Z,13.60
2018-11-14T06:25:25.994Z,14.70
2018-11-14T06:27:55.359Z,16.03
2018-11-14T06:30:24.463Z,12.13
2018-11-14T06:32:53.486Z,11.90
2018-11-14T06:35:22.257Z,13.67
2018-11-14T06:37:51.482Z,11.40
2018-11-14T06:40:20.402Z,11.23
2018-11-14T06:42:49.150Z,13.03
2018-11-14T06:45:19.057Z,11.30
2018-11-14T06:47:48.937Z,11.80
2018-11-14T06:50:17.613Z,14.13
2018-11-14T06:52:47.294Z,12.13
2018-11-14T06:55:16.850Z,12.50
2018-11-14T06:57:45.472Z,13.07
2018-11-14T07:00:31.512Z,12.67
2018-11-14T07:03:01.392Z,11.77
2018-11-14T07:05:30.019Z,12.50
2018-11-14T07:07:58.735Z,10.53
2018-11-14T07:10:29.847Z,12.73
2018-11-14T07:13:03.513Z,12.43
2018-11-14T07:15:32.082Z,9.03
2018-11-14T07:18:01.651Z,10.33
2018-11-14T07:20:32.518Z,12.30
2018-11-14T07:23:01.069Z,12.83
2018-11-14T07:25:29.634Z,12.13
2018-11-14T07:27:58.664Z,9.77
2018-11-14T07:30:28.406Z,15.33
2018-11-14T07:33:03.433Z,11.47
2018-11-14T07:35:32.025Z,12.03
2018-11-14T07:38:37.160Z,12.37
2018-11-14T07:41:07.363Z,10.07
2018-11-14T07:43:36.878Z,12.20
2018-11-14T07:46:06.085Z,11.43
2018-11-14T07:48:34.938Z,10.40
2018-11-14T07:51:03.618Z,9.87
2018-11-14T07:53:32.460Z,10.83
2018-11-14T07:56:01.003Z,8.33
2018-11-14T07:58:29.552Z,11.67
2018-11-14T08:00:58.326Z,9.67
2018-11-14T08:03:26.983Z,8.40
2018-11-14T08:05:55.976Z,13.23
2018-11-14T08:08:24.652Z,8.60
2018-11-14T08:10:53.537Z,10.33
2018-11-14T08:13:26.289Z,8.57
2018-11-14T08:15:56.785Z,10.60
2018-11-14T08:18:25.998Z,11.40
2018-11-14T08:20:54.897Z,11.90
2018-11-14T08:23:23.794Z,6.73
2018-11-14T08:25:52.358Z,10.50
2018-11-14T08:28:21.033Z,15.53
2018-11-14T08:30:49.580Z,10.43
2018-11-14T08:33:18.126Z,9.87
2018-11-14T08:35:46.761Z,11.90
2018-11-14T08:38:15.349Z,12.40
2018-11-14T08:40:43.890Z,10.27
2018-11-14T08:43:12.838Z,12.13
2018-11-14T08:45:41.729Z,12.90
2018-11-14T08:48:11.970Z,9.33
2018-11-14T08:50:42.229Z,13.97
2018-11-14T08:53:11.385Z,12.93
2018-11-14T08:55:39.925Z,15.13
2018-11-14T08:58:10.809Z,14.07
2018-11-14T09:00:39.841Z,9.37
2018-11-14T09:03:10.323Z,10.33
2018-11-14T09:05:38.925Z,10.23
2018-11-14T09:08:07.576Z,11.80
2018-11-14T09:10:36.189Z,11.07
2018-11-14T09:13:04.936Z,10.17
2018-11-14T09:15:33.574Z,9.77
2018-11-14T09:18:02.147Z,11.00
2018-11-14T09:20:30.738Z,9.50
2018-11-14T09:22:59.273Z,9.90
2018-11-14T09:25:29.654Z,10.40
2018-11-14T09:27:58.740Z,15.60
2018-11-14T09:30:27.657Z,15.23
2018-11-14T09:32:56.304Z,10.10
2018-11-14T09:35:25.903Z,10.47
2018-11-14T09:37:55.865Z,12.60
2018-11-14T09:40:25.835Z,10.03
2018-11-14T09:42:54.379Z,11.70
2018-11-14T09:45:25.125Z,11.63
2018-11-14T09:47:53.810Z,11.37
2018-11-14T09:50:23.642Z,8.97
2018-11-14T09:52:55.424Z,12.13
2018-11-14T09:55:24.013Z,10.63
2018-11-14T09:57:52.550Z,11.77
2018-11-14T10:00:23.443Z,12.03
2018-11-14T10:02:55.599Z,9.07
2018-11-14T10:05:25.488Z,11.20
2018-11-14T10:07:54.280Z,9.87
2018-11-14T10:10:23.457Z,10.53
2018-11-14T10:12:52.361Z,9.37
2018-11-14T10:15:23.041Z,9.67
2018-11-14T10:17:51.655Z,10.43
2018-11-14T10:20:21.565Z,11.40
2018-11-14T10:22:50.114Z,9.37
2018-11-14T10:25:19.086Z,10.37
2018-11-14T10:27:48.355Z,6.80
2018-11-14T10:30:21.444Z,12.00
2018-11-14T10:32:50.646Z,7.70
2018-11-14T10:35:19.184Z,8.47
2018-11-14T10:37:47.731Z,12.93
2018-11-14T10:40:19.673Z,8.80
2018-11-14T10:42:48.246Z,6.60
2018-11-14T10:45:18.542Z,11.03
2018-11-14T10:47:47.210Z,8.03
2018-11-14T10:50:19.378Z,9.33
2018-11-14T10:52:48.396Z,5.50
2018-11-14T11:06:58.534Z,8.83
2018-11-14T11:09:32.362Z,8.13
2018-11-14T11:12:06.055Z,9.97
2018-11-14T11:14:37.169Z,11.67
2018-11-14T11:17:10.956Z,8.40
2018-11-14T11:19:39.817Z,10.67
2018-11-14T11:22:08.396Z,8.67
2018-11-14T11:24:36.957Z,13.37
2018-11-14T11:27:05.636Z,9.57
2018-11-14T11:29:34.245Z,7.30
2018-11-14T11:32:03.331Z,8.97
2018-11-14T11:34:32.117Z,12.53
2018-11-14T11:37:00.698Z,8.20
2018-11-14T11:39:29.287Z,8.70
2018-11-14T11:41:57.909Z,9.43
2018-11-14T11:44:26.538Z,6.90
2018-11-14T11:46:55.264Z,13.40
2018-11-14T11:49:23.984Z,13.33
2018-11-14T11:51:52.745Z,10.23
2018-11-14T11:54:21.325Z,10.07
2018-11-14T11:56:49.928Z,12.90
2018-11-14T11:59:18.500Z,10.07
2018-11-14T12:01:47.266Z,13.27
2018-11-14T12:04:15.822Z,11.80
2018-11-14T12:06:44.347Z,7.80
2018-11-14T12:09:13.417Z,10.27
2018-11-14T12:11:41.981Z,9.50
2018-11-14T12:14:10.513Z,10.13
2018-11-14T12:16:39.114Z,15.30
2018-11-14T12:19:07.810Z,11.27
2018-11-14T12:21:36.693Z,10.90
2018-11-14T12:24:05.486Z,8.17
2018-11-14T12:26:34.053Z,10.83
2018-11-14T12:29:02.574Z,11.57
2018-11-14T12:31:31.126Z,7.90
2018-11-14T12:33:59.734Z,12.07
2018-11-14T12:36:28.326Z,9.87
2018-11-14T12:38:56.892Z,11.50
2018-11-14T12:41:25.593Z,10.00
2018-11-14T12:43:54.097Z,11.77
2018-11-14T12:46:22.634Z,12.43
2018-11-14T12:48:51.262Z,11.60
2018-11-14T12:51:20.175Z,13.30
2018-11-14T12:53:48.860Z,182.17
2018-11-14T12:56:17.413Z,23.93
2018-11-14T12:58:45.945Z,9.47
2018-11-14T13:01:14.481Z,17.13
2018-11-14T13:03:43.152Z,14.60
2018-11-14T13:06:11.685Z,10.27
2018-11-14T13:08:40.286Z,11.77
2018-11-14T13:11:09.179Z,19.83
2018-11-14T13:13:43.070Z,11.30
2018-11-14T13:16:11.734Z,12.57
2018-11-14T13:18:40.301Z,10.43
2018-11-14T13:21:09.257Z,12.80
2018-11-14T13:23:37.856Z,11.33
2018-11-14T13:26:06.565Z,10.43
2018-11-14T13:28:35.113Z,12.93
2018-11-14T13:31:03.753Z,12.30
2018-11-14T13:33:32.312Z,15.93
2018-11-14T13:36:00.912Z,11.07
2018-11-14T13:38:29.492Z,11.17
2018-11-14T13:40:58.030Z,14.67
2018-11-14T13:43:26.565Z,14.00
2018-11-14T13:45:55.257Z,11.27
2018-11-14T13:48:23.870Z,10.77
2018-11-14T13:50:52.407Z,7.00
2018-11-14T13:53:21.973Z,8.83
2018-11-14T13:55:50.739Z,11.17
2018-11-14T13:58:19.266Z,10.93
2018-11-14T14:00:47.845Z,12.57
2018-11-14T14:03:16.391Z,16.30
2018-11-14T14:05:44.914Z,17.77
2018-11-14T14:08:13.531Z,29.17
2018-11-14T14:10:42.070Z,39.63
2018-11-14T14:13:10.659Z,41.23
2018-11-14T14:15:39.589Z,73.37
2018-11-14T14:18:08.152Z,59.63
2018-11-14T14:20:36.676Z,34.97
2018-11-14T14:23:05.804Z,55.87
2018-11-14T14:25:34.337Z,79.10
2018-11-14T14:28:02.893Z,115.50
2018-11-14T14:30:31.433Z,145.87
2018-11-14T14:32:59.973Z,136.07
2018-11-14T14:35:28.542Z,222.40
2018-11-14T14:37:57.135Z,174.10
2018-11-14T14:40:25.875Z,195.00
2018-11-14T14:42:54.413Z,162.80
2018-11-14T14:45:24.884Z,106.57
2018-11-14T14:47:53.456Z,113.10
2018-11-14T14:50:22.031Z,30.30
2018-11-14T14:52:50.633Z,18.83
2018-11-14T14:55:21.123Z,22.53
2018-11-14T14:57:49.761Z,13.03
2018-11-14T15:00:23.930Z,12.10
2018-11-14T15:02:52.869Z,12.70
2018-11-14T15:05:21.430Z,10.23
2018-11-14T15:07:49.989Z,12.47
2018-11-14T15:10:19.940Z,15.53
2018-11-14T15:12:48.534Z,15.70
2018-11-14T15:15:17.468Z,22.63
2018-11-14T15:17:46.081Z,35.03
2018-11-14T15:20:16.875Z,42.23
2018-11-14T15:22:45.625Z,79.17
2018-11-14T15:25:15.564Z,61.70
2018-11-14T15:27:44.547Z,42.10
2018-11-14T15:30:15.823Z,29.00
2018-11-14T15:32:44.362Z,31.47
2018-11-14T15:35:13.554Z,35.03
2018-11-14T15:37:42.154Z,40.83
2018-11-14T15:40:12.615Z,60.33
2018-11-14T15:42:41.263Z,56.80
2018-11-14T15:45:13.622Z,43.83
2018-11-14T15:47:42.329Z,25.67
2018-11-14T15:50:14.209Z,23.27
2018-11-14T15:52:44.066Z,21.60
2018-11-14T15:55:21.585Z,14.83
2018-11-14T15:57:50.330Z,18.97
2018-11-14T16:00:28.356Z,20.07
2018-11-14T16:02:57.094Z,18.30
2018-11-14T16:05:27.091Z,19.10
2018-11-14T16:07:57.222Z,21.17
2018-11-14T16:10:26.642Z,18.97
2018-11-14T16:12:55.212Z,17.43
2018-11-14T16:15:26.190Z,19.97
2018-11-14T16:17:54.810Z,20.57
2018-11-14T16:20:24.619Z,19.13
2018-11-14T16:22:53.242Z,19.00
2018-11-14T16:25:23.220Z,20.25
2018-11-14T16:27:53.168Z,17.93
2018-11-14T16:30:30.996Z,19.07
2018-11-14T16:33:01.246Z,17.23
2018-11-14T16:35:29.858Z,24.93
2018-11-14T16:37:58.525Z,19.30
2018-11-14T16:40:30.698Z,18.43
2018-11-14T16:43:00.429Z,23.60
2018-11-14T16:45:29.013Z,23.53
2018-11-14T16:47:57.795Z,26.30
2018-11-14T16:50:26.467Z,27.13
2018-11-14T16:52:55.190Z,35.67
2018-11-14T16:55:24.148Z,35.63
2018-11-14T16:57:54.281Z,33.60
2018-11-14T17:00:30.226Z,29.23
2018-11-14T17:02:59.856Z,32.10
2018-11-14T17:05:29.619Z,33.47
2018-11-14T17:07:58.549Z,28.50
2018-11-14T17:10:27.253Z,26.63
2018-11-14T17:12:57.259Z,27.43
2018-11-14T17:15:26.973Z,26.80
2018-11-14T17:17:55.579Z,28.60
2018-11-14T17:20:24.325Z,29.83
2018-11-14T17:22:54.260Z,26.83
2018-11-14T17:25:22.926Z,28.27
2018-11-14T17:27:51.732Z,29.43
2018-11-14T17:30:22.777Z,25.30
2018-11-14T17:32:51.915Z,28.50
2018-11-14T17:35:20.831Z,30.57
2018-11-14T17:37:50.029Z,29.50
2018-11-14T17:40:28.242Z,27.37
2018-11-14T17:42:57.345Z,30.97
2018-11-14T17:45:27.247Z,33.13
2018-11-14T17:47:56.382Z,30.90
2018-11-14T17:50:29.942Z,29.80
2018-11-14T17:52:59.527Z,33.83
2018-11-14T17:55:28.448Z,34.87
2018-11-14T17:57:57.621Z,29.40
2018-11-14T18:00:27.660Z,33.30
2018-11-14T18:02:56.429Z,39.53
2018-11-14T18:05:26.388Z,28.60
2018-11-14T18:07:55.560Z,29.53
2018-11-14T18:10:28.449Z,28.87
2018-11-14T18:12:58.337Z,28.87
2018-11-14T18:15:27.099Z,28.53
2018-11-14T18:17:56.806Z,49.17
2018-11-14T18:20:27.918Z,63.47
2018-11-14T18:22:56.953Z,77.83
2018-11-14T18:25:26.492Z,70.53
2018-11-14T18:27:55.258Z,87.17
2018-11-14T18:30:25.335Z,73.57
2018-11-14T18:32:55.981Z,80.57
2018-11-14T18:35:25.368Z,63.47
2018-11-14T18:37:57.422Z,133.17
2018-11-14T18:40:37.537Z,100.30
2018-11-14T18:43:07.080Z,135.27
2018-11-14T18:45:36.476Z,135.70
2018-11-14T18:48:07.020Z,129.77
2018-11-14T18:50:36.356Z,126.47
2018-11-14T18:53:06.093Z,165.23
2018-11-14T18:55:36.036Z,187.70
2018-11-14T18:58:08.847Z,157.90
2018-11-14T19:00:38.352Z,142.73
2018-11-14T19:03:07.247Z,162.97
2018-11-14T19:05:35.839Z,147.17
2018-11-14T19:08:04.992Z,119.07
2018-11-14T19:10:34.515Z,92.90
2018-11-14T19:13:03.959Z,69.20
2018-11-14T19:15:34.260Z,59.33
2018-11-14T19:18:03.330Z,45.70
2018-11-14T19:20:34.409Z,41.13
2018-11-14T19:23:03.952Z,39.53
2018-11-14T19:25:34.198Z,38.37
2018-11-14T19:28:03.165Z,41.20
2018-11-14T19:30:33.279Z,36.50
2018-11-14T19:33:02.792Z,38.63
2018-11-14T19:35:31.870Z,34.80
2018-11-14T19:38:01.476Z,33.33
2018-11-14T19:40:32.851Z,31.17
2018-11-14T19:43:03.010Z,34.27
2018-11-14T19:45:33.874Z,37.40
2018-11-14T19:48:02.747Z,32.73
2018-11-14T19:50:31.904Z,41.17
2018-11-14T19:53:01.107Z,37.00
2018-11-14T19:55:31.602Z,34.67
2018-11-14T19:58:02.418Z,35.03
2018-11-14T20:00:32.649Z,34.23
2018-11-14T20:03:03.543Z,34.07
2018-11-14T20:05:32.284Z,36.60
2018-11-14T20:08:00.993Z,35.50
2018-11-14T20:10:31.260Z,42.90
2018-11-14T20:13:00.271Z,35.00
2018-11-14T20:15:31.092Z,39.33
2018-11-14T20:18:00.622Z,36.60
2018-11-14T20:20:33.790Z,38.57
2018-11-14T20:23:02.661Z,37.27
2018-11-14T20:25:31.463Z,35.47
2018-11-14T20:28:00.358Z,38.80
2018-11-14T20:30:30.594Z,43.20
2018-11-14T20:33:00.870Z,43.40
2018-11-14T20:35:29.687Z,43.03
2018-11-14T20:37:58.584Z,45.30
2018-11-14T20:40:27.645Z,51.40
2018-11-14T20:42:57.716Z,50.33
2018-11-14T20:45:27.954Z,48.03
2018-11-14T20:47:58.713Z,52.70
2018-11-14T20:50:28.325Z,47.70
2018-11-14T20:53:02.045Z,73.90
2018-11-14T20:55:31.272Z,82.60
2018-11-14T20:58:00.239Z,70.57
2018-11-14T21:00:33.575Z,60.13
2018-11-14T21:03:02.847Z,62.73
2018-11-14T21:05:32.543Z,66.17
2018-11-14T21:08:01.315Z,72.17
2018-11-14T21:10:31.286Z,70.27
2018-11-14T21:13:00.563Z,67.03
2018-11-14T21:15:31.169Z,72.20
2018-11-14T21:18:00.715Z,74.07
2018-11-14T21:20:29.251Z,68.13
2018-11-14T21:22:57.854Z,71.00
2018-11-14T21:25:27.611Z,65.80
2018-11-14T21:27:57.086Z,66.87
2018-11-14T21:30:27.139Z,63.77
2018-11-14T21:32:55.759Z,66.17
2018-11-14T21:35:28.584Z,71.53
2018-11-14T21:37:58.442Z,67.67
2018-11-14T21:40:27.050Z,64.77
2018-11-14T21:42:55.761Z,80.13
2018-11-14T21:45:25.824Z,95.67
2018-11-14T21:47:59.750Z,94.23
2018-11-14T21:50:29.249Z,102.40
2018-11-14T21:52:57.987Z,101.13
2018-11-14T21:55:26.791Z,95.97
2018-11-14T21:57:55.797Z,104.07
2018-11-14T22:00:25.793Z,104.40
2018-11-14T22:02:55.842Z,108.37
2018-11-14T22:05:24.468Z,104.10
2018-11-14T22:07:53.030Z,106.20
2018-11-14T22:10:22.736Z,149.13
2018-11-14T22:12:51.729Z,152.43
2018-11-14T22:15:21.497Z,143.63
2018-11-14T22:18:05.490Z,148.60
2018-11-14T22:20:34.804Z,149.13
2018-11-14T22:23:05.084Z,141.73
2018-11-14T22:25:33.737Z,130.80
2018-11-14T22:28:02.443Z,117.70
2018-11-14T22:30:32.237Z,128.47
2018-11-14T22:33:01.163Z,145.30
2018-11-14T22:35:31.357Z,134.20
2018-11-14T22:38:00.637Z,143.73
2018-11-14T22:40:30.538Z,136.57
2018-11-14T22:42:59.317Z,126.67
2018-11-14T22:45:29.283Z,131.23
2018-11-14T22:47:57.901Z,136.93
2018-11-14T22:50:27.649Z,133.80
2018-11-14T22:52:56.281Z,143.17
2018-11-14T22:55:25.737Z,141.20
2018-11-14T22:57:54.687Z,138.57
2018-11-14T23:00:28.409Z,129.00
2018-11-14T23:02:58.349Z,125.87
2018-11-14T23:05:27.130Z,125.80
2018-11-14T23:07:56.597Z,121.90
2018-11-14T23:10:25.812Z,126.60
2018-11-14T23:12:54.471Z,124.67
2018-11-14T23:15:24.037Z,110.07
2018-11-14T23:17:53.353Z,90.57
2018-11-14T23:20:22.053Z,88.13
2018-11-14T23:22:51.556Z,82.70
2018-11-14T23:25:20.526Z,74.70
2018-11-14T23:27:50.642Z,81.00
2018-11-14T23:30:20.401Z,71.20
2018-11-14T23:32:50.175Z,74.10
2018-11-14T23:35:27.794Z,67.30
2018-11-14T23:37:57.692Z,62.70
2018-11-14T23:40:26.777Z,66.90
2018-11-14T23:42:55.413Z,62.70
2018-11-14T23:45:24.841Z,66.03
2018-11-14T23:47:53.460Z,64.37
2018-11-14T23:50:23.325Z,63.37
2018-11-14T23:52:53.310Z,67.53
2018-11-14T23:55:23.177Z,68.33
2018-11-14T23:57:51.815Z,69.47
